Wetter- und Hausseite der Bittkau's aus Magdeburg Ottersleben


Hier werden aktuelle Daten aus einer privaten Wetterstation und

lokale Wettervorhersagen bereitgestellt




Thunder radar more information blitzortung!


Rain radar more information rain snow radar



Es ist keine erhöhte Aufmerksamkeit aufgrund des Wetters notwendig.    Es gibt keine Warnungen.

METAR-Meldungen aus der Umgebung

   
EDDB - Berlin
Aktualisierung: 25.01.2021 11:50
Stark bewölkt  
Stark bewölkt  
   Wind: Westen 16.7 km/h
Wind: Westen 16.7 km/h
Temperatur: 2°C
Gefühlt: -2°C
Taupunkt: 0°C
Luftfeuchte: 87%
Luftdruck: 1002 hPa
Bewölkt: Stark bewölkt
Sichtbarkeit: More than 10 km
Bewölkung: Stark bewölkt 304.8 m
EDDB 251050Z 26009KT 9999 BKN010 02/00 Q1002 TEMPO SCT012
EDDP - Leipzig
Aktualisierung: 25.01.2021 11:50
Klar  
Klar  
   Wind: WSW 7.4 km/h
Wind: WSW 7.4 km/h
Temperatur: 0°C
Gefühlt: -3°C
Taupunkt: -2°C
Luftfeuchte: 87%
Luftdruck: 1003 hPa
Sichtbarkeit: More than 10 km
Bewölkung: Klar
EDDP 251050Z 25004KT CAVOK M00/M02 Q1003 R26R/2901// R26L/190195 NOSIG
EDDC - Dresden
Aktualisierung: 25.01.2021 11:50
leicht bewölkt  
leicht bewölkt  
   Wind: NW 5.6 km/h
Wind: NW 5.6 km/h
Temperatur: 1°C
Gefühlt: -1°C
Taupunkt: -2°C
Luftfeuchte: 81%
Luftdruck: 1002 hPa
Bewölkt: leicht bewölkt
Sichtbarkeit: More than 10 km
Bewölkung: leicht bewölkt 518.2 m
EDDC 251050Z 31003KT 270V350 9999 FEW017 01/M02 Q1002 R04/29//95 NOSIG
EDDE - Erfurt
Aktualisierung: 25.01.2021 11:50
leicht bewölkt  
leicht bewölkt  
   Wind: SW 3.7 km/h
Wind: SW 3.7 km/h
Temperatur: -1°C
Taupunkt: -3°C
Luftfeuchte: 86%
Luftdruck: 1002 hPa
Bewölkt: leicht bewölkt
Sichtbarkeit: More than 10 km
Bewölkung: leicht bewölkt 1188.7 m
EDDE 251050Z 23002KT 9999 FEW039 M01/M03 Q1002 R88/390094 NOSIG
EDVE - Braunschweig
Aktualisierung: 25.01.2021 11:50
Stark bewölkt  
Stark bewölkt  
   Wind: Westen 7.4 km/h
Wind: Westen 7.4 km/h
Temperatur: 2°C
Gefühlt: 0°C
Taupunkt: -2°C
Luftfeuchte: 75%
Luftdruck: 1003 hPa
Bewölkt: Stark bewölkt
Sichtbarkeit: More than 10 km
Bewölkung: leicht bewölkt 518.2 m,
Stark bewölkt 701 m,
Stark bewölkt 1463 m
EDVE 251050Z 27004KT 9999 FEW017 BKN023 BKN048 02/M02 Q1003
EDDV - Hannover
Aktualisierung: 25.01.2021 11:50
Klar  
Klar  
   Wind: Westen 9.3 km/h
Wind: Westen 9.3 km/h
Temperatur: 0°C
Gefühlt: -3°C
Taupunkt: -2°C
Luftfeuchte: 87%
Luftdruck: 1003 hPa
Sichtbarkeit: More than 10 km
Bewölkung: Klar
EDDV 251050Z 26005KT CAVOK 00/M02 Q1003 NOSIG
EDDE - Schwerin
Aktualisierung: 25.01.2021 11:50
leicht bewölkt  
leicht bewölkt  
   Wind: SW 3.7 km/h
Wind: SW 3.7 km/h
Temperatur: -1°C
Taupunkt: -3°C
Luftfeuchte: 86%
Luftdruck: 1002 hPa
Bewölkt: leicht bewölkt
Sichtbarkeit: More than 10 km
Bewölkung: leicht bewölkt 1188.7 m
EDDE 251050Z 23002KT 9999 FEW039 M01/M03 Q1002 R88/390094 NOSIG
EDHI - Hamburg
Aktualisierung: 25.01.2021 11:50
Nebel, Bewölkt  
Nebel, Bewölkt  
   Wind: WSW 11.1 km/h
Wind: WSW 11.1 km/h
Temperatur: 0°C
Gefühlt: -3°C
Taupunkt: 0°C
Luftfeuchte: 100%
Luftdruck: 1002 hPa
Bewölkt: Bewölkt
Sichtbarkeit: 3 km
Bewölkung: Bewölkt 61 m
EDHI 251050Z 24006KT 2500 BR OVC002 M00/M00 Q1002
EDDK - Köln-Bonn
Aktualisierung: 25.01.2021 11:50
Leichter Schneefall, Bewölkt  
Leichter Schneefall, Bewölkt  
   Wind: NW 5.6 km/h
Wind: NW 5.6 km/h
Temperatur: 1°C
Gefühlt: -1°C
Taupunkt: 0°C
Luftfeuchte: 93%
Luftdruck: 1004 hPa
Bewölkt: Bewölkt
Sichtbarkeit: 6 km
Bewölkung: leicht bewölkt 121.9 m,
Bewölkt 304.8 m
EDDK 251050Z 32003KT 6000 -SN FEW004 OVC010 01/M00 Q1004 R14L/190295 R06///99// R14R///99// NOSIG

Script entwickelt von  Saratoga-weather.org Angepasst für das Template von  Weerstation Leuven

Sie finden die Wetterinfo auch auf:

Wetternetzwerk Deutschland

European Weather Network

Weather Underground

Regionalwetter-SA

wetter.com

wxforum.de

Genutzte Hardware, Software und WEB Anbieter:

Wetterstation
Ventus W928-Ultimate

Wetterprogramm
Meteohub

WetterComputer
RaspberryPI

Anbieter

Ventus W928-Ultimate

Meteohub

RaspberryPI